British Holly — MCZN2 — position and weather

sailwx.info

Track history (hours):
 
Tides and Currents Weather Stations Pressure Air Temp Water Temp Dewpoint Dewpoint Depression Visibility Wind Speed Wind Dir Waves Ship Positions

British Holly

Last reported at 2016-Mar-10 07:33 UTC. Time now 2016-Aug-25 11:29 UTC.
Position N 24°51' E 119°09'.
Warning: this ship's position is months out of date.

Type: Ship (hazmat cat A). MMSI: 235814000.

Date/timePositionNaut miles runAvg speedWind from/ knotsBaromVisibWave heightAir tempDewpointWater temp
2016-Mar-10 07:33N 24°51' E 119°09'1110.9
2016-Mar-10 06:33N 25°00' E 119°03'1110.5
2016-Mar-10 05:33N 25°10' E 118°59'0 0.1
2016-Mar-10 04:13N 25°10' E 118°59'0 0.0
2016-Mar-10 02:25N 25°10' E 118°59'0 0.0
2016-Mar-10 01:32N 25°10' E 118°59'0 0.0
2016-Mar-10 00:33N 25°10' E 118°59'0 0.0
2016-Mar-09 23:33N 25°10' E 118°59'0 0.0
2016-Mar-09 22:15N 25°10' E 118°59'0 0.0
2016-Mar-09 21:33N 25°10' E 118°59'0 0.0
2016-Mar-09 12:15N 25°10' E 118°59'0 0.0
2016-Mar-09 11:09N 25°10' E 118°59'0 0.0
2016-Mar-09 10:27N 25°10' E 118°59'0 0.0
2016-Mar-09 09:21N 25°10' E 118°59'0 0.0
2016-Mar-09 07:33N 25°10' E 118°59'0 0.0
2016-Mar-09 06:33N 25°10' E 118°59'0 0.0
2016-Mar-09 05:33N 25°10' E 118°59'0 0.0
2016-Mar-09 04:33N 25°10' E 118°59'0 0.0
2016-Mar-09 03:24N 25°10' E 118°59'0 0.0
2016-Mar-09 01:07N 25°10' E 118°59'0 0.0
2016-Mar-09 00:30N 25°10' E 118°59'0 0.0
2016-Mar-08 23:27N 25°10' E 118°59'0 0.0
2016-Mar-08 22:33N 25°10' E 118°59'0 0.0
2016-Mar-08 21:33N 25°10' E 118°59'0 0.0
2016-Mar-08 20:33N 25°10' E 118°59'0 0.0
2016-Mar-08 19:33N 25°10' E 118°59'0 0.0
2016-Mar-08 15:30N 25°10' E 118°59'0 0.0
2016-Mar-08 07:32N 25°10' E 118°59'6 6.2
2016-Mar-08 06:33N 25°04' E 119°01'8 8.2
2016-Mar-08 05:32N 24°56' E 119°03'3 3.6
2016-Mar-08 04:33N 24°53' E 119°05'2 2.2
2016-Mar-08 03:33N 24°51' E 119°05'  
Track history (hours):
 
Tides and Currents Weather Stations Pressure Air Temp Water Temp Dewpoint Dewpoint Depression Visibility Wind Speed Wind Dir Waves Ship Positions

British Holly

Last reported at 2016-Mar-10 07:33 UTC. Time now 2016-Aug-25 11:29 UTC.
Position N 24°51' E 119°09'.
Warning: this ship's position is months out of date.

Type: Ship (hazmat cat A). MMSI: 235814000.

Date/timePositionNaut miles runAvg speedWind from/ knotsBaromVisibWave heightAir tempDewpointWater temp
2016-Mar-10 07:33N 24°51' E 119°09'1110.9
2016-Mar-10 06:33N 25°00' E 119°03'1110.5
2016-Mar-10 05:33N 25°10' E 118°59'0 0.1
2016-Mar-10 04:13N 25°10' E 118°59'0 0.0
2016-Mar-10 02:25N 25°10' E 118°59'0 0.0
2016-Mar-10 01:32N 25°10' E 118°59'0 0.0
2016-Mar-10 00:33N 25°10' E 118°59'0 0.0
2016-Mar-09 23:33N 25°10' E 118°59'0 0.0
2016-Mar-09 22:15N 25°10' E 118°59'0 0.0
2016-Mar-09 21:33N 25°10' E 118°59'0 0.0
2016-Mar-09 12:15N 25°10' E 118°59'0 0.0
2016-Mar-09 11:09N 25°10' E 118°59'0 0.0
2016-Mar-09 10:27N 25°10' E 118°59'0 0.0
2016-Mar-09 09:21N 25°10' E 118°59'0 0.0
2016-Mar-09 07:33N 25°10' E 118°59'0 0.0
2016-Mar-09 06:33N 25°10' E 118°59'0 0.0
2016-Mar-09 05:33N 25°10' E 118°59'0 0.0
2016-Mar-09 04:33N 25°10' E 118°59'0 0.0
2016-Mar-09 03:24N 25°10' E 118°59'0 0.0
2016-Mar-09 01:07N 25°10' E 118°59'0 0.0
2016-Mar-09 00:30N 25°10' E 118°59'0 0.0
2016-Mar-08 23:27N 25°10' E 118°59'0 0.0
2016-Mar-08 22:33N 25°10' E 118°59'0 0.0
2016-Mar-08 21:33N 25°10' E 118°59'0 0.0
2016-Mar-08 20:33N 25°10' E 118°59'0 0.0
2016-Mar-08 19:33N 25°10' E 118°59'0 0.0
2016-Mar-08 15:30N 25°10' E 118°59'0 0.0
2016-Mar-08 07:32N 25°10' E 118°59'6 6.2
2016-Mar-08 06:33N 25°04' E 119°01'8 8.2
2016-Mar-08 05:32N 24°56' E 119°03'3 3.6
2016-Mar-08 04:33N 24°53' E 119°05'2 2.2
2016-Mar-08 03:33N 24°51' E 119°05'  

Dump ship's entire track history